Time;durP1;ratioP1;P1;durP2;ratioP2;P2;SDS_P1;SDS_P2;PMS_P1;PMS_P2;Temp;Humidity;BMP_temperature;BMP_pressure;BME280_temperature;BME280_humidity;BME280_pressure;Samples;Min_cycle;Max_cycle;Signal;HPM_P1;HPM_P2
2022/03/13 00:02:05;;;;;;;;;10.25;8.50;;;;;;;;5035512;28;45383;-78
2022/03/13 00:04:30;;;;;;;;;8.00;8.00;;;;;;;;5035513;28;45682;-73
2022/03/13 00:06:56;;;;;;;;;12.00;10.75;;;;;;;;5034765;28;45505;-75
2022/03/13 00:09:22;;;;;;;;;9.50;8.50;;;;;;;;5036331;28;45411;-77
2022/03/13 00:11:50;;;;;;;;;10.75;8.00;;;;;;;;5034985;28;45501;-77
2022/03/13 00:14:16;;;;;;;;;9.50;9.50;;;;;;;;5034179;28;45478;-75
2022/03/13 00:16:42;;;;;;;;;9.25;9.25;;;;;;;;5034997;28;45354;-76
2022/03/13 00:19:10;;;;;;;;;14.00;11.50;;;;;;;;5019097;28;45652;-77
2022/03/13 00:21:35;;;;;;;;;10.25;10.25;;;;;;;;5035495;28;45615;-77
2022/03/13 00:24:01;;;;;;;;;9.00;9.00;;;;;;;;5034707;28;46058;-78
2022/03/13 00:26:26;;;;;;;;;8.00;8.00;;;;;;;;5034408;28;45695;-78
2022/03/13 00:28:51;;;;;;;;;10.50;8.00;;;;;;;;5034489;28;46099;-77
2022/03/13 00:31:16;;;;;;;;;10.00;10.00;;;;;;;;5034652;28;45408;-77
2022/03/13 00:33:42;;;;;;;;;10.75;10.50;;;;;;;;5019964;28;46009;-78
2022/03/13 00:36:07;;;;;;;;;9.25;8.25;;;;;;;;5034178;28;45378;-77
2022/03/13 00:38:32;;;;;;;;;9.75;9.75;;;;;;;;5035000;28;45507;-76
2022/03/13 00:40:58;;;;;;;;;1.75;1.75;;;;;;;;5033338;28;45417;-76
2022/03/13 00:43:25;;;;;;;;;7.75;6.50;;;;;;;;5020399;28;45522;-77
2022/03/13 00:45:50;;;;;;;;;8.50;8.50;;;;;;;;5035350;28;45478;-76
2022/03/13 00:48:16;;;;;;;;;8.00;8.00;;;;;;;;5035397;28;45500;-76
2022/03/13 00:50:41;;;;;;;;;11.25;9.00;;;;;;;;5034611;28;45402;-76
2022/03/13 00:53:06;;;;;;;;;11.00;9.00;;;;;;;;5034381;28;46306;-77
2022/03/13 00:55:32;;;;;;;;;7.00;7.00;;;;;;;;5034152;28;45420;-78
2022/03/13 00:57:57;;;;;;;;;7.75;7.00;;;;;;;;5034823;28;45473;-79
2022/03/13 01:00:23;;;;;;;;;8.00;7.50;;;;;;;;5035228;28;45465;-78
2022/03/13 01:02:49;;;;;;;;;8.00;8.00;;;;;;;;5033775;28;45476;-76
2022/03/13 01:05:21;;;;;;;;;11.50;9.25;;;;;;;;5034139;28;45313;-76
2022/03/13 01:07:46;;;;;;;;;9.50;9.00;;;;;;;;5034302;28;45481;-75
2022/03/13 01:10:11;;;;;;;;;10.00;9.00;;;;;;;;5033860;28;45307;-77
2022/03/13 01:12:36;;;;;;;;;10.75;7.25;;;;;;;;5019534;28;46437;-77
2022/03/13 01:15:02;;;;;;;;;10.00;7.25;;;;;;;;5022602;28;45385;-77
2022/03/13 01:17:28;;;;;;;;;10.00;8.00;;;;;;;;5029129;28;45382;-76
2022/03/13 01:19:53;;;;;;;;;7.25;7.25;;;;;;;;5034987;28;45353;-77
2022/03/13 01:22:18;;;;;;;;;5.00;5.00;;;;;;;;5034667;28;45891;-76
2022/03/13 01:24:45;;;;;;;;;4.50;4.50;;;;;;;;5034497;28;45597;-76
2022/03/13 01:27:20;;;;;;;;;6.00;6.00;;;;;;;;5034677;28;45458;-76
2022/03/13 01:29:46;;;;;;;;;7.50;6.50;;;;;;;;5034836;28;47441;-76
2022/03/13 01:32:12;;;;;;;;;4.75;4.75;;;;;;;;5034646;28;45319;-75
2022/03/13 01:34:41;;;;;;;;;5.00;5.00;;;;;;;;5034645;28;45476;-75
2022/03/13 01:37:08;;;;;;;;;11.50;10.50;;;;;;;;5034311;28;45495;-75
2022/03/13 01:39:34;;;;;;;;;6.50;6.50;;;;;;;;5035293;28;45406;-78
2022/03/13 01:41:59;;;;;;;;;5.75;5.75;;;;;;;;5034396;28;46555;-78
2022/03/13 01:44:25;;;;;;;;;9.00;7.75;;;;;;;;5034309;28;45368;-78
2022/03/13 01:46:51;;;;;;;;;8.25;6.00;;;;;;;;5034774;28;45360;-78
2022/03/13 01:49:16;;;;;;;;;5.75;5.50;;;;;;;;5033642;28;45377;-78
2022/03/13 01:51:41;;;;;;;;;6.25;6.25;;;;;;;;5030663;28;46366;-78
2022/03/13 01:54:08;;;;;;;;;7.00;7.00;;;;;;;;5034561;28;45422;-78
2022/03/13 01:56:34;;;;;;;;;5.75;5.75;;;;;;;;5034540;28;45365;-79
2022/03/13 01:59:00;;;;;;;;;6.25;5.75;;;;;;;;5033957;28;45373;-79
2022/03/13 02:01:26;;;;;;;;;6.25;6.25;;;;;;;;5033962;28;45531;-79
2022/03/13 02:03:51;;;;;;;;;7.75;7.75;;;;;;;;5034642;28;45397;-78
2022/03/13 02:06:17;;;;;;;;;8.75;6.75;;;;;;;;5034130;28;45447;-76
2022/03/13 02:08:44;;;;;;;;;6.00;6.00;;;;;;;;5034159;28;45470;-75
2022/03/13 02:11:09;;;;;;;;;7.75;7.00;;;;;;;;5033534;28;47560;-73
2022/03/13 02:13:36;;;;;;;;;5.75;5.75;;;;;;;;5034146;28;45288;-73
2022/03/13 02:16:01;;;;;;;;;6.75;5.75;;;;;;;;5034152;28;45347;-74
2022/03/13 02:18:27;;;;;;;;;10.00;9.00;;;;;;;;5034327;28;45530;-74
2022/03/13 02:20:52;;;;;;;;;12.00;9.00;;;;;;;;5033839;28;46978;-74
2022/03/13 02:23:19;;;;;;;;;6.00;6.00;;;;;;;;5034036;28;45473;-74
2022/03/13 02:25:47;;;;;;;;;6.75;5.75;;;;;;;;5034120;28;45592;-72
2022/03/13 02:28:13;;;;;;;;;8.00;8.00;;;;;;;;5034188;28;45499;-74
2022/03/13 02:30:38;;;;;;;;;5.50;5.50;;;;;;;;5019496;28;46061;-74
2022/03/13 02:33:03;;;;;;;;;6.00;6.00;;;;;;;;5033256;28;45358;-72
2022/03/13 02:35:29;;;;;;;;;9.00;7.25;;;;;;;;5034300;28;45353;-73
2022/03/13 02:37:55;;;;;;;;;14.50;12.50;;;;;;;;5034136;28;45448;-74
2022/03/13 02:40:24;;;;;;;;;11.25;7.75;;;;;;;;5033827;28;46036;-73
2022/03/13 02:42:52;;;;;;;;;6.00;6.00;;;;;;;;5033752;28;45483;-72
2022/03/13 02:45:28;;;;;;;;;7.00;7.00;;;;;;;;5020783;28;45593;-74
2022/03/13 02:47:54;;;;;;;;;9.00;8.00;;;;;;;;5031379;28;45509;-74
2022/03/13 02:50:19;;;;;;;;;7.25;7.25;;;;;;;;5033377;28;46173;-75
2022/03/13 02:52:45;;;;;;;;;9.25;7.00;;;;;;;;5034067;28;45478;-73
2022/03/13 02:55:10;;;;;;;;;10.25;9.75;;;;;;;;5033611;28;45433;-73
2022/03/13 02:57:35;;;;;;;;;11.25;9.25;;;;;;;;5033847;28;45412;-73
2022/03/13 03:00:00;;;;;;;;;8.25;7.25;;;;;;;;5033326;28;47434;-74
2022/03/13 03:02:26;;;;;;;;;12.75;12.25;;;;;;;;5032961;28;45361;-73
2022/03/13 03:04:54;;;;;;;;;9.50;8.00;;;;;;;;5031567;28;45595;-73
2022/03/13 03:07:19;;;;;;;;;9.00;9.00;;;;;;;;5033524;28;45308;-73
2022/03/13 03:09:44;;;;;;;;;7.50;7.50;;;;;;;;5017871;28;46016;-73
2022/03/13 03:12:10;;;;;;;;;8.00;8.00;;;;;;;;5033221;28;47224;-73
2022/03/13 03:14:35;;;;;;;;;8.75;8.75;;;;;;;;5033172;28;45484;-73
2022/03/13 03:17:00;;;;;;;;;9.25;8.75;;;;;;;;5033060;28;45568;-73
2022/03/13 03:19:26;;;;;;;;;11.25;7.75;;;;;;;;5032933;28;47085;-73
2022/03/13 03:21:52;;;;;;;;;15.75;9.25;;;;;;;;5033188;28;45396;-73
2022/03/13 03:24:20;;;;;;;;;7.75;7.75;;;;;;;;5035526;28;45454;-73
2022/03/13 03:26:45;;;;;;;;;10.00;10.00;;;;;;;;5036613;28;45852;-73
2022/03/13 03:29:11;;;;;;;;;9.75;9.00;;;;;;;;5036114;28;47139;-72
2022/03/13 03:31:41;;;;;;;;;8.00;8.00;;;;;;;;5036806;28;45387;-73
2022/03/13 03:34:10;;;;;;;;;11.50;9.25;;;;;;;;5036447;28;45283;-72
2022/03/13 03:36:44;;;;;;;;;13.50;8.25;;;;;;;;5037318;28;45471;-73
2022/03/13 03:39:10;;;;;;;;;7.00;7.00;;;;;;;;5036435;28;46417;-73
2022/03/13 03:41:35;;;;;;;;;10.00;7.75;;;;;;;;5036297;28;45302;-73
2022/03/13 03:44:01;;;;;;;;;8.00;8.00;;;;;;;;5036347;28;45335;-73
2022/03/13 03:46:26;;;;;;;;;11.75;7.00;;;;;;;;5036726;28;45327;-74
2022/03/13 03:48:51;;;;;;;;;9.50;9.50;;;;;;;;5020139;28;46458;-73
2022/03/13 03:51:16;;;;;;;;;9.75;8.75;;;;;;;;5036787;28;45306;-73
2022/03/13 03:53:42;;;;;;;;;9.75;9.75;;;;;;;;5036743;28;47747;-73
2022/03/13 03:56:07;;;;;;;;;5.25;4.25;;;;;;;;5036281;28;45509;-73
2022/03/13 03:58:32;;;;;;;;;14.25;10.75;;;;;;;;5036069;28;47036;-73
2022/03/13 04:00:57;;;;;;;;;8.75;8.75;;;;;;;;5036073;28;45406;-73
2022/03/13 04:03:22;;;;;;;;;7.75;6.75;;;;;;;;5036435;28;45440;-73
2022/03/13 04:05:48;;;;;;;;;10.50;10.50;;;;;;;;5036192;28;45479;-73
2022/03/13 04:08:13;;;;;;;;;10.50;10.25;;;;;;;;5035764;28;46098;-73
2022/03/13 04:10:38;;;;;;;;;14.25;11.50;;;;;;;;5036125;28;45457;-73
2022/03/13 04:13:04;;;;;;;;;6.00;6.00;;;;;;;;5035941;28;45394;-73
2022/03/13 04:15:29;;;;;;;;;12.50;8.25;;;;;;;;5036522;28;45469;-73
2022/03/13 04:17:55;;;;;;;;;8.50;8.50;;;;;;;;5035258;28;46464;-73
2022/03/13 04:20:21;;;;;;;;;8.25;7.00;;;;;;;;5036223;28;45659;-73
2022/03/13 04:22:46;;;;;;;;;7.50;7.50;;;;;;;;5037432;28;45461;-73
2022/03/13 04:25:12;;;;;;;;;12.00;9.25;;;;;;;;5037457;28;45556;-74
2022/03/13 04:27:37;;;;;;;;;6.75;6.75;;;;;;;;5021930;28;45416;-75
2022/03/13 04:30:02;;;;;;;;;11.25;10.00;;;;;;;;5034953;28;45361;-73
2022/03/13 04:32:28;;;;;;;;;8.75;7.50;;;;;;;;5035407;28;45382;-73
2022/03/13 04:34:53;;;;;;;;;6.50;6.00;;;;;;;;5035486;28;45486;-73
2022/03/13 04:37:19;;;;;;;;;9.00;7.75;;;;;;;;5035677;28;47160;-75
2022/03/13 04:39:44;;;;;;;;;6.00;6.00;;;;;;;;5036345;28;45469;-74
2022/03/13 04:42:09;;;;;;;;;8.25;7.75;;;;;;;;5036129;28;45335;-74
2022/03/13 04:44:35;;;;;;;;;8.00;6.00;;;;;;;;5035807;28;45347;-73
2022/03/13 04:47:01;;;;;;;;;8.25;7.25;;;;;;;;5035329;28;46157;-72
2022/03/13 04:49:26;;;;;;;;;11.25;10.00;;;;;;;;5035954;28;45425;-73
2022/03/13 04:51:51;;;;;;;;;10.00;8.00;;;;;;;;5035937;28;45354;-73
2022/03/13 04:54:17;;;;;;;;;6.75;6.75;;;;;;;;5036158;28;45271;-73
2022/03/13 04:56:43;;;;;;;;;7.00;6.00;;;;;;;;5035409;28;46209;-73
2022/03/13 04:59:08;;;;;;;;;6.25;6.25;;;;;;;;5035500;28;45423;-72
2022/03/13 05:01:33;;;;;;;;;6.25;6.25;;;;;;;;5035376;28;45466;-73
2022/03/13 05:03:59;;;;;;;;;6.00;6.00;;;;;;;;5035732;28;45473;-73
2022/03/13 05:06:24;;;;;;;;;11.00;8.00;;;;;;;;5033652;28;45464;-73
2022/03/13 05:08:49;;;;;;;;;6.00;6.00;;;;;;;;5035136;28;45407;-73
2022/03/13 05:11:15;;;;;;;;;7.25;7.00;;;;;;;;5035658;28;45533;-73
2022/03/13 05:13:41;;;;;;;;;7.75;7.00;;;;;;;;5035425;28;45407;-73
2022/03/13 05:16:06;;;;;;;;;7.75;7.75;;;;;;;;5034976;28;46187;-73
2022/03/13 05:18:32;;;;;;;;;5.25;5.25;;;;;;;;5035976;28;45409;-73
2022/03/13 05:20:57;;;;;;;;;6.00;5.00;;;;;;;;5035344;28;45582;-73
2022/03/13 05:23:22;;;;;;;;;5.25;5.25;;;;;;;;5034877;28;45430;-76
2022/03/13 05:25:48;;;;;;;;;5.75;5.75;;;;;;;;5034892;28;46208;-76
2022/03/13 05:28:13;;;;;;;;;4.50;3.00;;;;;;;;5035091;28;45576;-77
2022/03/13 05:30:39;;;;;;;;;9.00;7.75;;;;;;;;5035388;28;45362;-77
2022/03/13 05:33:05;;;;;;;;;6.00;4.50;;;;;;;;5035132;28;45356;-77
2022/03/13 05:35:30;;;;;;;;;7.00;5.75;;;;;;;;5034654;28;46096;-78
2022/03/13 05:37:55;;;;;;;;;5.75;5.75;;;;;;;;5034603;28;45400;-76
2022/03/13 05:40:21;;;;;;;;;4.50;4.50;;;;;;;;5034879;28;45549;-77
2022/03/13 05:42:49;;;;;;;;;6.75;5.75;;;;;;;;5035157;28;45346;-77
2022/03/13 05:45:16;;;;;;;;;4.75;4.75;;;;;;;;5034307;28;46338;-77
2022/03/13 05:48:02;;;;;;;;;5.00;5.00;;;;;;;;5033471;28;45547;-76
2022/03/13 05:50:28;;;;;;;;;4.75;4.50;;;;;;;;5023320;28;45394;-76
2022/03/13 05:52:56;;;;;;;;;5.75;4.75;;;;;;;;5034239;28;45440;-77
2022/03/13 05:55:21;;;;;;;;;7.00;6.00;;;;;;;;5034247;28;47715;-77
2022/03/13 05:57:46;;;;;;;;;6.00;6.00;;;;;;;;5034880;28;45379;-77
2022/03/13 06:00:13;;;;;;;;;7.25;6.00;;;;;;;;5034483;28;45752;-76
2022/03/13 06:02:39;;;;;;;;;6.25;6.00;;;;;;;;5034540;28;45537;-77
2022/03/13 06:05:05;;;;;;;;;2.50;2.50;;;;;;;;5033889;28;47200;-75
2022/03/13 06:07:30;;;;;;;;;4.75;4.75;;;;;;;;5034192;28;45552;-75
2022/03/13 06:09:55;;;;;;;;;4.75;3.25;;;;;;;;5034764;28;45382;-75
2022/03/13 06:12:21;;;;;;;;;4.00;4.00;;;;;;;;5035740;28;45381;-77
2022/03/13 06:14:46;;;;;;;;;3.50;3.00;;;;;;;;5034907;28;46252;-76
2022/03/13 06:17:11;;;;;;;;;4.75;4.00;;;;;;;;5034765;28;45453;-76
2022/03/13 06:19:39;;;;;;;;;4.00;3.50;;;;;;;;5034707;28;45339;-76
2022/03/13 06:22:05;;;;;;;;;4.25;3.75;;;;;;;;5034670;28;45303;-76
2022/03/13 06:24:32;;;;;;;;;5.00;5.00;;;;;;;;5020668;28;46549;-77
2022/03/13 06:26:57;;;;;;;;;7.75;5.00;;;;;;;;5031730;28;45547;-76
2022/03/13 06:29:22;;;;;;;;;5.00;5.00;;;;;;;;5033760;28;45698;-76
2022/03/13 06:31:48;;;;;;;;;4.75;4.00;;;;;;;;5033958;28;45329;-77
2022/03/13 06:34:13;;;;;;;;;4.00;4.00;;;;;;;;5034146;28;47112;-77
2022/03/13 06:36:39;;;;;;;;;5.25;4.00;;;;;;;;5034425;28;45495;-77
2022/03/13 06:39:04;;;;;;;;;6.75;5.25;;;;;;;;5033786;28;45342;-78
2022/03/13 06:41:31;;;;;;;;;6.50;5.25;;;;;;;;5033256;28;45346;-74
2022/03/13 06:43:56;;;;;;;;;4.50;4.50;;;;;;;;5033633;28;46229;-74
2022/03/13 06:46:21;;;;;;;;;4.25;3.75;;;;;;;;5033689;28;45458;-73
2022/03/13 06:48:46;;;;;;;;;5.50;4.00;;;;;;;;5034112;28;45455;-73
2022/03/13 06:51:12;;;;;;;;;7.00;6.00;;;;;;;;5033608;28;45388;-72
2022/03/13 06:53:37;;;;;;;;;5.00;3.00;;;;;;;;5033072;28;45646;-72
2022/03/13 06:56:03;;;;;;;;;3.75;3.75;;;;;;;;5032969;28;45491;-73
2022/03/13 06:58:28;;;;;;;;;3.00;3.00;;;;;;;;5035325;28;45418;-72
2022/03/13 07:00:53;;;;;;;;;2.25;2.25;;;;;;;;5036735;28;45509;-72
2022/03/13 07:03:18;;;;;;;;;4.00;4.00;;;;;;;;5024810;28;46332;-71
2022/03/13 07:05:44;;;;;;;;;4.50;4.00;;;;;;;;5033274;28;45348;-72
2022/03/13 07:08:09;;;;;;;;;4.25;4.25;;;;;;;;5036623;28;45442;-73
2022/03/13 07:10:34;;;;;;;;;4.75;3.50;;;;;;;;5036230;28;45498;-73
2022/03/13 07:12:59;;;;;;;;;3.75;3.75;;;;;;;;5036645;28;45467;-73
2022/03/13 07:15:26;;;;;;;;;2.00;2.00;;;;;;;;5036679;28;45339;-73
2022/03/13 07:17:52;;;;;;;;;4.25;4.25;;;;;;;;5036575;28;45409;-73
2022/03/13 07:20:17;;;;;;;;;4.50;4.00;;;;;;;;5036414;28;45437;-73
2022/03/13 07:22:43;;;;;;;;;4.50;4.50;;;;;;;;5036348;28;46601;-73
2022/03/13 07:25:08;;;;;;;;;5.25;5.00;;;;;;;;5035860;28;45460;-74
2022/03/13 07:27:34;;;;;;;;;3.00;3.00;;;;;;;;5036695;28;45398;-73
2022/03/13 07:29:59;;;;;;;;;4.00;2.75;;;;;;;;5035965;28;45567;-74
2022/03/13 07:32:24;;;;;;;;;0.00;0.00;;;;;;;;5036242;28;46389;-73
2022/03/13 07:34:49;;;;;;;;;4.00;4.00;;;;;;;;5036267;28;45534;-73
2022/03/13 07:37:15;;;;;;;;;3.50;3.50;;;;;;;;5036659;28;45308;-72
2022/03/13 07:39:41;;;;;;;;;4.25;4.25;;;;;;;;5036556;28;45313;-75
2022/03/13 07:42:06;;;;;;;;;5.00;4.00;;;;;;;;5024981;28;47070;-74
2022/03/13 07:44:31;;;;;;;;;3.25;3.00;;;;;;;;5030746;28;45505;-73
2022/03/13 07:46:57;;;;;;;;;4.00;3.25;;;;;;;;5036687;28;45436;-74
2022/03/13 07:49:22;;;;;;;;;3.00;3.00;;;;;;;;5036382;28;45632;-72
2022/03/13 07:51:47;;;;;;;;;4.00;4.00;;;;;;;;5036453;28;46839;-74
2022/03/13 07:54:14;;;;;;;;;3.50;3.25;;;;;;;;5035677;28;45406;-72
2022/03/13 07:56:40;;;;;;;;;6.00;3.00;;;;;;;;5035846;28;45378;-72
2022/03/13 07:59:05;;;;;;;;;3.00;3.00;;;;;;;;5033530;28;45297;-74
2022/03/13 08:01:30;;;;;;;;;3.50;3.50;;;;;;;;5023876;28;47304;-73
2022/03/13 08:03:56;;;;;;;;;4.50;3.25;;;;;;;;5036933;28;45406;-74
2022/03/13 08:06:21;;;;;;;;;3.00;3.00;;;;;;;;5038057;28;45373;-73
2022/03/13 08:08:46;;;;;;;;;4.00;3.25;;;;;;;;5035623;28;46001;-74
2022/03/13 08:11:11;;;;;;;;;3.50;3.50;;;;;;;;5035253;28;46231;-74
2022/03/13 08:13:37;;;;;;;;;3.75;3.75;;;;;;;;5036301;28;45323;-73
2022/03/13 08:16:02;;;;;;;;;4.75;4.75;;;;;;;;5035915;28;45525;-74
2022/03/13 08:18:29;;;;;;;;;4.50;4.00;;;;;;;;5036703;28;45401;-74
2022/03/13 08:20:55;;;;;;;;;3.00;2.00;;;;;;;;5026396;28;46349;-73
2022/03/13 08:23:20;;;;;;;;;4.00;4.00;;;;;;;;5028038;28;45362;-73
2022/03/13 08:25:45;;;;;;;;;4.00;4.00;;;;;;;;5035698;28;45338;-74
2022/03/13 08:28:11;;;;;;;;;3.00;3.00;;;;;;;;5035440;28;45480;-73
2022/03/13 08:30:36;;;;;;;;;5.25;4.00;;;;;;;;5035901;28;45549;-73
2022/03/13 08:33:01;;;;;;;;;3.00;3.00;;;;;;;;5035470;28;45473;-73
2022/03/13 08:35:28;;;;;;;;;2.00;2.00;;;;;;;;5035475;28;45500;-72
2022/03/13 08:37:53;;;;;;;;;2.50;2.50;;;;;;;;5035082;28;45433;-74
2022/03/13 08:40:18;;;;;;;;;5.00;2.25;;;;;;;;5035141;28;46363;-73
2022/03/13 08:42:44;;;;;;;;;2.00;2.00;;;;;;;;5035890;28;45386;-72
2022/03/13 08:45:11;;;;;;;;;2.75;2.75;;;;;;;;5034822;28;45578;-73
2022/03/13 08:47:36;;;;;;;;;3.25;2.25;;;;;;;;5034574;28;45511;-76
2022/03/13 08:50:01;;;;;;;;;3.00;3.00;;;;;;;;5034635;28;45559;-76
2022/03/13 08:52:27;;;;;;;;;3.75;2.75;;;;;;;;5032920;28;45811;-77
2022/03/13 08:54:52;;;;;;;;;2.75;2.25;;;;;;;;5035206;28;45312;-76
2022/03/13 08:57:17;;;;;;;;;2.25;2.25;;;;;;;;5021940;28;45382;-74
2022/03/13 08:59:42;;;;;;;;;1.25;1.25;;;;;;;;5022971;28;45387;-74
2022/03/13 09:02:09;;;;;;;;;1.75;1.75;;;;;;;;5025892;28;45330;-75
2022/03/13 09:04:34;;;;;;;;;3.50;3.50;;;;;;;;5034309;28;45377;-74
2022/03/13 09:07:00;;;;;;;;;3.00;2.75;;;;;;;;5034071;28;45407;-73
2022/03/13 09:09:25;;;;;;;;;2.75;2.75;;;;;;;;5034580;28;47612;-76
2022/03/13 09:11:51;;;;;;;;;2.00;2.00;;;;;;;;5033663;28;45445;-74
2022/03/13 09:14:16;;;;;;;;;3.00;3.00;;;;;;;;5034480;28;45430;-75
2022/03/13 09:16:42;;;;;;;;;2.50;2.50;;;;;;;;5034498;28;45533;-75
2022/03/13 09:19:08;;;;;;;;;3.00;3.00;;;;;;;;5033933;28;46220;-74
2022/03/13 09:21:34;;;;;;;;;2.00;2.00;;;;;;;;5032612;28;45782;-74
2022/03/13 09:23:59;;;;;;;;;2.00;2.00;;;;;;;;5033617;28;45280;-74
2022/03/13 09:26:25;;;;;;;;;2.25;2.25;;;;;;;;5033625;28;45231;-72
2022/03/13 09:28:50;;;;;;;;;2.00;2.00;;;;;;;;5033829;28;45624;-74
2022/03/13 09:31:15;;;;;;;;;2.50;2.00;;;;;;;;5033981;28;45224;-74
2022/03/13 09:33:40;;;;;;;;;0.00;0.00;;;;;;;;5035038;28;45213;-74
2022/03/13 09:36:06;;;;;;;;;1.50;1.50;;;;;;;;5034397;28;45307;-73
2022/03/13 09:38:31;;;;;;;;;1.50;1.50;;;;;;;;5027185;28;45322;-75
2022/03/13 09:40:57;;;;;;;;;0.00;0.00;;;;;;;;5024074;28;45442;-74
2022/03/13 09:43:22;;;;;;;;;2.50;2.00;;;;;;;;5034424;28;45592;-73
2022/03/13 09:45:48;;;;;;;;;2.00;1.00;;;;;;;;5034246;28;45318;-72
2022/03/13 09:48:15;;;;;;;;;2.00;2.00;;;;;;;;5033889;28;46978;-74
2022/03/13 09:50:41;;;;;;;;;1.00;1.00;;;;;;;;5033426;28;45366;-75
2022/03/13 09:53:06;;;;;;;;;2.00;2.00;;;;;;;;5034230;28;45299;-73
2022/03/13 09:55:32;;;;;;;;;2.00;2.00;;;;;;;;5034358;28;45772;-72
2022/03/13 09:57:57;;;;;;;;;3.00;3.00;;;;;;;;5033739;28;46403;-74
2022/03/13 10:00:24;;;;;;;;;6.00;3.00;;;;;;;;5034028;28;45576;-72
2022/03/13 10:02:53;;;;;;;;;2.75;1.50;;;;;;;;5024901;28;45453;-73
2022/03/13 10:05:20;;;;;;;;;3.00;3.00;;;;;;;;5026036;28;45421;-76
2022/03/13 10:07:54;;;;;;;;;1.25;0.00;;;;;;;;5033739;28;46354;-75
2022/03/13 10:10:21;;;;;;;;;1.75;1.75;;;;;;;;5018478;28;45335;-75
2022/03/13 10:12:46;;;;;;;;;3.75;2.50;;;;;;;;5033866;28;45438;-76
2022/03/13 10:15:13;;;;;;;;;3.00;2.00;;;;;;;;5033577;28;45456;-77
2022/03/13 10:17:39;;;;;;;;;2.75;1.75;;;;;;;;5026268;28;46178;-79
2022/03/13 10:20:15;;;;;;;;;1.00;1.00;;;;;;;;5023341;28;45378;-77
2022/03/13 10:22:41;;;;;;;;;0.50;0.50;;;;;;;;5033692;28;45414;-78
2022/03/13 10:25:07;;;;;;;;;2.75;2.75;;;;;;;;5033321;28;45502;-80
2022/03/13 10:27:33;;;;;;;;;2.25;2.25;;;;;;;;5033396;28;46170;-80
2022/03/13 10:30:00;;;;;;;;;2.00;2.00;;;;;;;;5033268;28;45422;-78
2022/03/13 10:32:26;;;;;;;;;2.00;2.00;;;;;;;;5034468;28;45726;-80
2022/03/13 10:34:56;;;;;;;;;1.75;1.75;;;;;;;;5036660;28;45327;-78
2022/03/13 10:37:43;;;;;;;;;2.50;2.00;;;;;;;;5036522;28;47194;-77
2022/03/13 10:40:17;;;;;;;;;3.00;2.00;;;;;;;;5036864;28;45449;-77
2022/03/13 10:42:43;;;;;;;;;2.25;1.50;;;;;;;;5034050;28;45411;-81
2022/03/13 10:45:36;;;;;;;;;2.25;2.25;;;;;;;;5026614;28;45298;-76
2022/03/13 10:48:23;;;;;;;;;4.00;4.00;;;;;;;;5032915;28;46947;-75
2022/03/13 10:50:51;;;;;;;;;4.75;3.00;;;;;;;;5036561;28;45458;-74
2022/03/13 10:53:18;;;;;;;;;3.75;3.00;;;;;;;;5036822;28;45484;-76
2022/03/13 10:55:43;;;;;;;;;2.00;2.00;;;;;;;;5036845;28;45611;-75
2022/03/13 10:58:08;;;;;;;;;2.00;2.00;;;;;;;;5020268;28;46493;-76
2022/03/13 11:00:36;;;;;;;;;3.50;2.00;;;;;;;;5022703;28;45443;-75
2022/03/13 11:03:10;;;;;;;;;3.00;3.00;;;;;;;;5034736;28;45341;-75
2022/03/13 11:05:35;;;;;;;;;3.00;3.00;;;;;;;;5035854;28;45640;-78
2022/03/13 11:08:04;;;;;;;;;3.25;3.25;;;;;;;;5035599;28;45759;-78
2022/03/13 11:10:29;;;;;;;;;2.50;2.50;;;;;;;;5035773;28;45573;-78
2022/03/13 11:12:57;;;;;;;;;3.00;3.00;;;;;;;;5036127;28;45418;-76
2022/03/13 11:15:27;;;;;;;;;3.25;3.25;;;;;;;;5036332;28;45406;-75
2022/03/13 11:17:54;;;;;;;;;2.75;2.75;;;;;;;;5035284;28;46932;-74
2022/03/13 11:20:19;;;;;;;;;2.00;2.00;;;;;;;;5035916;28;45600;-74
2022/03/13 11:22:45;;;;;;;;;4.00;4.00;;;;;;;;5036019;28;45387;-76
2022/03/13 11:25:10;;;;;;;;;1.00;1.00;;;;;;;;5034623;28;45594;-75
2022/03/13 11:27:36;;;;;;;;;4.00;4.00;;;;;;;;5036448;28;46343;-76
2022/03/13 11:30:03;;;;;;;;;2.75;2.75;;;;;;;;5036951;28;45443;-75
2022/03/13 11:32:30;;;;;;;;;2.00;2.00;;;;;;;;5036011;28;45339;-75
2022/03/13 11:35:07;;;;;;;;;5.50;4.00;;;;;;;;5034506;28;45449;-74
2022/03/13 11:37:33;;;;;;;;;1.25;1.25;;;;;;;;5021816;28;46917;-74
2022/03/13 11:39:59;;;;;;;;;5.75;3.75;;;;;;;;5035543;28;45842;-75
2022/03/13 11:42:24;;;;;;;;;1.75;1.75;;;;;;;;5036091;28;45376;-77
2022/03/13 11:44:49;;;;;;;;;3.00;2.75;;;;;;;;5026219;28;45614;-76
2022/03/13 11:47:22;;;;;;;;;3.00;3.00;;;;;;;;5027077;28;46574;-76
2022/03/13 11:49:48;;;;;;;;;2.00;2.00;;;;;;;;5035732;28;45663;-77
2022/03/13 11:52:16;;;;;;;;;3.00;2.00;;;;;;;;5035485;28;45486;-77
2022/03/13 11:54:45;;;;;;;;;2.00;2.00;;;;;;;;5036373;28;45585;-76
2022/03/13 11:57:17;;;;;;;;;1.75;1.75;;;;;;;;5035277;28;46328;-76
2022/03/13 11:59:43;;;;;;;;;2.25;2.25;;;;;;;;5035343;28;45486;-76
2022/03/13 12:02:12;;;;;;;;;2.00;2.00;;;;;;;;5034999;28;45351;-77
2022/03/13 12:04:37;;;;;;;;;2.00;2.00;;;;;;;;5035183;28;45372;-76
2022/03/13 12:07:06;;;;;;;;;2.00;2.00;;;;;;;;5035449;28;46428;-76
2022/03/13 12:09:41;;;;;;;;;3.00;3.00;;;;;;;;5036092;28;45418;-76
2022/03/13 12:12:07;;;;;;;;;4.25;3.50;;;;;;;;5035917;28;45375;-77
2022/03/13 12:14:51;;;;;;;;;3.00;3.00;;;;;;;;5029608;28;45542;-77
2022/03/13 12:17:17;;;;;;;;;4.00;4.00;;;;;;;;5026649;28;45513;-76
2022/03/13 12:19:44;;;;;;;;;4.25;4.00;;;;;;;;5033971;28;45334;-77
2022/03/13 12:22:09;;;;;;;;;2.75;2.75;;;;;;;;5034116;28;45500;-77
2022/03/13 12:24:35;;;;;;;;;4.00;4.00;;;;;;;;5036034;28;45307;-77
2022/03/13 12:27:01;;;;;;;;;5.50;4.25;;;;;;;;5035132;28;45999;-76
2022/03/13 12:29:28;;;;;;;;;4.75;4.75;;;;;;;;5034872;28;45419;-76
2022/03/13 12:31:54;;;;;;;;;2.50;2.50;;;;;;;;5035259;28;45430;-76
2022/03/13 12:34:23;;;;;;;;;4.75;3.75;;;;;;;;5035075;28;45425;-77
2022/03/13 12:36:49;;;;;;;;;2.25;2.25;;;;;;;;5035532;28;45392;-78
2022/03/13 12:39:14;;;;;;;;;3.00;3.00;;;;;;;;5023450;28;45432;-76
2022/03/13 12:41:44;;;;;;;;;3.25;3.25;;;;;;;;5030784;28;45436;-77
2022/03/13 12:44:12;;;;;;;;;4.75;3.50;;;;;;;;5034501;28;45754;-78
2022/03/13 12:46:38;;;;;;;;;3.75;3.00;;;;;;;;5034871;28;47006;-77
2022/03/13 12:49:04;;;;;;;;;3.00;3.00;;;;;;;;5034842;28;45922;-76
2022/03/13 12:51:41;;;;;;;;;2.25;2.25;;;;;;;;5035209;28;45445;-77
2022/03/13 12:54:22;;;;;;;;;7.75;4.00;;;;;;;;5024244;28;45418;-77
2022/03/13 12:56:49;;;;;;;;;5.25;3.50;;;;;;;;5031317;28;47091;-78
2022/03/13 12:59:23;;;;;;;;;4.50;4.50;;;;;;;;5033764;28;45476;-78
2022/03/13 13:02:05;;;;;;;;;2.00;2.00;;;;;;;;5034537;28;45755;-77
2022/03/13 13:04:30;;;;;;;;;4.50;4.50;;;;;;;;5020378;28;45545;-78
2022/03/13 13:06:56;;;;;;;;;3.75;3.75;;;;;;;;5034819;28;46294;-78
2022/03/13 13:09:31;;;;;;;;;6.00;3.50;;;;;;;;5035209;28;45415;-77
2022/03/13 13:11:56;;;;;;;;;4.50;4.50;;;;;;;;5034717;28;45279;-75
2022/03/13 13:14:22;;;;;;;;;6.75;5.00;;;;;;;;5033389;28;45474;-75
2022/03/13 13:16:47;;;;;;;;;4.50;4.50;;;;;;;;5026725;28;46410;-75
2022/03/13 13:19:13;;;;;;;;;6.00;5.00;;;;;;;;5032655;28;45426;-74
2022/03/13 13:24:38;;;;;;;;;4.50;4.50;;;;;;;;5844005;22;45493;-77
2022/03/13 13:27:07;;;;;;;;;3.25;3.25;;;;;;;;5030361;28;46314;-78
2022/03/13 13:29:40;;;;;;;;;5.50;5.50;;;;;;;;5049890;28;45378;-76
2022/03/13 13:32:24;;;;;;;;;7.00;6.00;;;;;;;;5050763;28;45592;-79
2022/03/13 13:34:59;;;;;;;;;6.25;4.00;;;;;;;;5054085;28;45523;-79
2022/03/13 13:37:24;;;;;;;;;5.75;5.75;;;;;;;;5036643;28;46183;-79
2022/03/13 13:39:59;;;;;;;;;5.50;4.00;;;;;;;;5053933;28;45228;-80
2022/03/13 13:42:25;;;;;;;;;2.00;2.00;;;;;;;;5053291;28;45299;-79
2022/03/13 13:44:50;;;;;;;;;7.50;6.00;;;;;;;;5049757;28;45648;-80
2022/03/13 13:47:22;;;;;;;;;6.50;4.75;;;;;;;;5035002;28;47712;-78
2022/03/13 13:49:47;;;;;;;;;9.00;8.00;;;;;;;;5050440;28;45494;-78
2022/03/13 13:52:12;;;;;;;;;7.50;6.25;;;;;;;;5051704;28;45386;-76
2022/03/13 13:54:38;;;;;;;;;6.25;6.25;;;;;;;;5053390;28;45340;-78
2022/03/13 13:57:03;;;;;;;;;3.75;2.75;;;;;;;;5049971;28;45492;-78
2022/03/13 14:00:01;;;;;;;;;7.50;7.50;;;;;;;;5050713;28;45569;-79
2022/03/13 14:02:27;;;;;;;;;7.00;7.00;;;;;;;;5045767;28;45566;-79
2022/03/13 14:04:54;;;;;;;;;7.00;7.00;;;;;;;;5049930;28;45573;-79
2022/03/13 14:07:19;;;;;;;;;8.75;7.50;;;;;;;;5054126;28;46170;-87
2022/03/13 14:09:44;;;;;;;;;7.00;4.75;;;;;;;;5055428;28;45524;-82
2022/03/13 14:12:10;;;;;;;;;6.50;6.00;;;;;;;;5054915;28;45273;-83
2022/03/13 14:14:36;;;;;;;;;6.50;4.50;;;;;;;;5055980;28;45476;-80
2022/03/13 14:17:01;;;;;;;;;6.75;5.75;;;;;;;;5054156;28;46139;-81
2022/03/13 14:19:28;;;;;;;;;4.00;3.25;;;;;;;;5054273;28;45348;-81
2022/03/13 14:21:54;;;;;;;;;8.00;7.25;;;;;;;;5053896;28;45469;-82
2022/03/13 14:24:19;;;;;;;;;4.00;3.50;;;;;;;;5055542;28;45538;-81
2022/03/13 14:26:44;;;;;;;;;4.25;2.75;;;;;;;;5053671;28;46459;-81
2022/03/13 14:29:10;;;;;;;;;5.25;4.50;;;;;;;;5054576;28;45384;-80
2022/03/13 14:31:35;;;;;;;;;7.50;7.00;;;;;;;;5054872;28;45455;-80
2022/03/13 14:34:01;;;;;;;;;6.75;5.25;;;;;;;;5053853;28;45187;-81
2022/03/13 14:36:26;;;;;;;;;3.50;3.50;;;;;;;;5054367;28;47185;-82
2022/03/13 14:38:52;;;;;;;;;6.00;3.00;;;;;;;;5036058;28;45311;-82
2022/03/13 14:41:22;;;;;;;;;2.50;2.50;;;;;;;;5051398;28;45277;-82